createdAt,value
2022-10-03T00:01:57.046Z,5.82
2022-10-03T00:04:40.563Z,5.15
2022-10-03T00:07:23.523Z,5.40
2022-10-03T00:10:06.096Z,6.22
2022-10-03T00:12:50.714Z,7.32
2022-10-03T00:15:25.871Z,6.65
2022-10-03T00:18:05.118Z,9.73
2022-10-03T00:20:47.381Z,7.55
2022-10-03T00:23:22.713Z,9.38
2022-10-03T00:26:21.810Z,7.22
2022-10-03T00:28:58.515Z,7.65
2022-10-03T00:31:43.430Z,6.50
2022-10-03T00:34:25.681Z,7.38
2022-10-03T00:37:15.816Z,7.57
2022-10-03T00:40:04.559Z,7.40
2022-10-03T00:43:01.325Z,8.40
2022-10-03T00:45:55.523Z,7.95
2022-10-03T00:48:56.577Z,6.72
2022-10-03T00:51:41.539Z,7.35
2022-10-03T00:54:29.576Z,6.97
2022-10-03T00:57:29.637Z,7.40
2022-10-03T01:00:15.639Z,8.02
2022-10-03T01:03:02.344Z,8.07
2022-10-03T01:05:46.496Z,8.07
2022-10-03T01:08:37.228Z,7.68
2022-10-03T01:11:21.649Z,7.30
2022-10-03T01:14:01.691Z,7.80
2022-10-03T01:16:40.133Z,7.25
2022-10-03T01:19:28.996Z,9.20
2022-10-03T01:22:13.450Z,7.95
2022-10-03T01:24:54.774Z,7.53
2022-10-03T01:27:36.236Z,11.98
2022-10-03T01:30:24.625Z,9.73
2022-10-03T01:32:58.911Z,8.00
2022-10-03T01:35:40.178Z,8.68
2022-10-03T01:38:20.867Z,10.40
2022-10-03T01:41:03.647Z,8.93
2022-10-03T01:43:41.702Z,8.93
2022-10-03T01:46:21.773Z,9.00
2022-10-03T01:49:02.300Z,15.18
2022-10-03T01:51:44.633Z,12.88
2022-10-03T01:54:30.318Z,7.82
2022-10-03T01:57:05.220Z,10.05
2022-10-03T01:59:41.925Z,11.10
2022-10-03T02:02:41.995Z,10.05
2022-10-03T02:05:22.007Z,8.40
2022-10-03T02:07:59.819Z,8.68
2022-10-03T02:10:41.707Z,11.18
2022-10-03T02:13:18.868Z,13.23
2022-10-03T02:16:00.376Z,9.68
2022-10-03T02:18:45.692Z,10.13
2022-10-03T02:21:21.708Z,10.35
2022-10-03T02:24:08.085Z,9.13
2022-10-03T02:27:14.774Z,13.43
2022-10-03T02:30:11.539Z,9.85
2022-10-03T02:33:18.791Z,9.40
2022-10-03T02:36:19.178Z,11.20
2022-10-03T02:39:16.279Z,10.77
2022-10-03T02:42:15.454Z,8.50
2022-10-03T02:45:18.388Z,10.73
2022-10-03T02:48:31.814Z,7.90
2022-10-03T02:51:51.738Z,7.70
2022-10-03T02:55:06.159Z,9.52
2022-10-03T02:58:19.904Z,8.35
2022-10-03T03:01:25.991Z,10.15
2022-10-03T03:04:26.278Z,9.45
2022-10-03T03:07:32.543Z,8.75
2022-10-03T03:10:30.283Z,8.57
2022-10-03T03:13:28.654Z,7.18
2022-10-03T03:16:53.996Z,7.78
2022-10-03T03:19:54.769Z,11.70
2022-10-03T03:22:39.089Z,8.00
2022-10-03T03:25:33.461Z,11.60
2022-10-03T03:28:24.971Z,9.02
2022-10-03T03:31:07.470Z,9.13
2022-10-03T03:33:47.832Z,14.85
2022-10-03T03:36:28.054Z,9.85
2022-10-03T03:39:13.840Z,9.77
2022-10-03T03:41:57.320Z,10.57
2022-10-03T03:44:49.344Z,8.45
2022-10-03T03:47:40.079Z,12.93
2022-10-03T03:50:28.405Z,8.85
2022-10-03T03:53:27.299Z,12.60
2022-10-03T03:56:17.884Z,10.32
2022-10-03T03:59:00.290Z,10.38
2022-10-03T04:01:59.020Z,9.27
2022-10-03T04:04:44.678Z,9.52
2022-10-03T04:07:35.348Z,12.95
2022-10-03T04:10:28.643Z,8.65
2022-10-03T04:13:32.764Z,12.25
2022-10-03T04:16:43.077Z,11.77
2022-10-03T04:19:19.359Z,10.50
2022-10-03T04:22:23.429Z,13.85
2022-10-03T04:25:20.590Z,10.63
2022-10-03T04:28:03.579Z,7.72
2022-10-03T04:30:42.114Z,8.70
2022-10-03T04:33:20.308Z,10.27
2022-10-03T04:36:18.155Z,7.22
2022-10-03T04:38:55.224Z,11.25
2022-10-03T04:41:33.735Z,9.57
2022-10-03T04:44:12.033Z,10.55
2022-10-03T04:46:52.951Z,13.07
2022-10-03T04:49:32.191Z,11.07
2022-10-03T04:52:06.804Z,11.85
2022-10-03T04:54:48.418Z,10.32
2022-10-03T04:57:26.317Z,12.52
2022-10-03T05:00:08.404Z,14.15
2022-10-03T05:02:47.786Z,10.48
2022-10-03T05:05:48.741Z,13.18
2022-10-03T05:08:51.124Z,10.07
2022-10-03T05:11:26.690Z,9.77
2022-10-03T05:14:03.778Z,10.20
2022-10-03T05:16:40.349Z,8.73
2022-10-03T05:19:46.060Z,10.52
2022-10-03T05:22:26.596Z,11.23
2022-10-03T05:25:03.127Z,11.85
2022-10-03T05:27:42.424Z,10.68
2022-10-03T05:30:26.963Z,8.88
2022-10-03T05:33:08.349Z,10.93
2022-10-03T05:35:52.440Z,14.45
2022-10-03T05:38:48.536Z,14.80
2022-10-03T05:41:25.917Z,16.67
2022-10-03T05:44:04.039Z,16.40
2022-10-03T05:46:46.894Z,15.20
2022-10-03T05:49:54.143Z,17.75
2022-10-03T05:52:49.639Z,23.27
2022-10-03T05:55:38.047Z,17.35
2022-10-03T05:58:32.554Z,22.92
2022-10-03T06:01:22.806Z,21.85
2022-10-03T06:04:33.092Z,23.23
2022-10-03T06:07:15.413Z,21.08
2022-10-03T06:10:16.171Z,24.00
2022-10-03T06:12:52.409Z,27.70
2022-10-03T06:15:39.317Z,18.35
2022-10-03T06:18:31.537Z,20.48
2022-10-03T06:21:23.331Z,20.05
2022-10-03T06:24:33.156Z,16.08
2022-10-03T06:27:59.626Z,15.60
2022-10-03T06:30:36.122Z,17.45
2022-10-03T06:33:40.505Z,22.50
2022-10-03T06:36:40.955Z,24.20
2022-10-03T06:39:38.110Z,19.70
2022-10-03T06:42:21.822Z,22.95
2022-10-03T06:45:31.031Z,17.00
2022-10-03T06:48:52.238Z,18.20
2022-10-03T06:51:46.436Z,21.33
2022-10-03T06:55:14.492Z,18.48
2022-10-03T06:58:10.876Z,25.90
2022-10-03T07:00:54.863Z,18.75
2022-10-03T07:04:09.016Z,18.92
2022-10-03T07:07:07.634Z,22.17
2022-10-03T07:10:14.513Z,27.30
2022-10-03T07:13:31.108Z,22.73
2022-10-03T07:16:27.505Z,20.75
2022-10-03T07:19:15.878Z,21.83
2022-10-03T07:45:11.557Z,20.20
2022-10-03T07:48:04.987Z,18.88
2022-10-03T07:51:00.220Z,21.17
2022-10-03T07:54:17.740Z,16.17
2022-10-03T07:57:04.166Z,15.50
2022-10-03T08:00:10.487Z,20.38
2022-10-03T08:03:19.466Z,27.48
2022-10-03T08:06:06.479Z,23.90
2022-10-03T08:09:10.009Z,18.75
2022-10-03T08:11:55.052Z,16.77
2022-10-03T08:14:46.175Z,13.77
2022-10-03T08:17:52.728Z,17.38
2022-10-03T08:20:47.724Z,29.63
2022-10-03T08:23:53.769Z,14.02
2022-10-03T08:26:35.212Z,14.73
2022-10-03T08:29:36.341Z,17.15
2022-10-03T08:32:48.729Z,16.52
2022-10-03T08:35:48.835Z,18.83
2022-10-03T08:38:39.612Z,16.92
2022-10-03T08:42:10.144Z,17.73
2022-10-03T08:45:09.411Z,21.13
2022-10-03T08:48:03.509Z,22.05
2022-10-03T08:50:49.029Z,14.73
2022-10-03T08:53:54.149Z,15.77
2022-10-03T08:57:08.453Z,13.65
2022-10-03T09:00:14.942Z,13.20
2022-10-03T09:03:34.353Z,14.40
2022-10-03T09:07:12.624Z,16.05
2022-10-03T09:10:08.550Z,18.45
2022-10-03T09:13:04.379Z,19.35
2022-10-03T09:16:20.882Z,18.58
2022-10-03T09:19:13.006Z,12.80
2022-10-03T09:22:09.552Z,14.70
2022-10-03T09:25:14.642Z,14.00
2022-10-03T09:28:37.764Z,11.48
2022-10-03T09:31:32.085Z,11.80
2022-10-03T09:34:20.747Z,12.90
2022-10-03T09:37:31.492Z,18.65
2022-10-03T09:41:12.808Z,15.98
2022-10-03T09:44:16.662Z,9.82
2022-10-03T09:47:28.178Z,10.77
2022-10-03T09:50:47.127Z,9.52
2022-10-03T09:54:16.654Z,9.13
2022-10-03T09:57:11.640Z,10.15
2022-10-03T10:00:05.015Z,9.00
2022-10-03T10:03:28.055Z,10.85
2022-10-03T10:06:16.164Z,13.40
2022-10-03T10:09:10.807Z,11.88
2022-10-03T10:12:29.941Z,21.92
2022-10-03T10:15:36.801Z,19.13
2022-10-03T10:18:33.659Z,11.02
2022-10-03T10:21:35.809Z,17.30
2022-10-03T10:24:36.770Z,10.80
2022-10-03T10:27:43.491Z,7.75
2022-10-03T10:30:46.953Z,9.38
2022-10-03T10:34:07.185Z,9.85
2022-10-03T10:37:13.801Z,14.35
2022-10-03T10:40:16.561Z,11.77
2022-10-03T10:43:33.748Z,9.35
2022-10-03T10:46:50.034Z,9.65
2022-10-03T10:49:56.769Z,9.93
2022-10-03T10:53:07.509Z,8.27
2022-10-03T10:56:10.304Z,13.52
2022-10-03T10:59:17.704Z,7.50
2022-10-03T11:02:18.771Z,13.10
2022-10-03T11:05:41.470Z,7.57
2022-10-03T11:08:51.675Z,8.13
2022-10-03T11:11:54.598Z,8.82
2022-10-03T11:15:19.622Z,9.25
2022-10-03T11:18:07.265Z,5.70
2022-10-03T11:21:24.218Z,5.85
2022-10-03T11:24:52.596Z,7.97
2022-10-03T11:28:02.202Z,10.90
2022-10-03T11:31:41.086Z,7.55
2022-10-03T11:35:00.521Z,6.70
2022-10-03T11:37:53.214Z,8.80
2022-10-03T11:40:47.176Z,5.63
2022-10-03T11:44:04.151Z,6.82
2022-10-03T11:47:27.122Z,8.43
2022-10-03T11:50:35.281Z,6.93
2022-10-03T11:53:25.664Z,6.72
2022-10-03T11:56:15.278Z,5.65
2022-10-03T11:59:34.159Z,7.53
2022-10-03T12:02:24.450Z,9.50
2022-10-03T12:05:14.914Z,5.93
2022-10-03T12:08:13.915Z,5.90
2022-10-03T12:11:02.493Z,6.22
2022-10-03T12:13:44.274Z,9.57
2022-10-03T12:16:33.256Z,7.40
2022-10-03T12:19:31.872Z,6.85
2022-10-03T12:22:20.995Z,10.23
2022-10-03T12:25:00.453Z,6.97
2022-10-03T12:27:51.980Z,6.07
2022-10-03T12:30:35.548Z,9.63
2022-10-03T12:33:48.406Z,5.80
2022-10-03T12:36:29.257Z,7.50
2022-10-03T12:39:37.571Z,5.90
2022-10-03T12:42:32.835Z,6.43
2022-10-03T12:45:28.540Z,6.35
2022-10-03T12:48:36.083Z,6.30
2022-10-03T12:51:21.126Z,6.18
2022-10-03T12:54:09.549Z,10.30
2022-10-03T12:56:53.053Z,7.47
2022-10-03T12:59:44.305Z,7.53
2022-10-03T13:02:40.229Z,7.72
2022-10-03T13:05:38.445Z,8.50
2022-10-03T13:08:40.122Z,13.02
2022-10-03T13:11:34.950Z,5.75
2022-10-03T13:15:07.019Z,9.30
2022-10-03T13:17:53.624Z,6.45
2022-10-03T13:20:38.471Z,5.43
2022-10-03T13:23:26.493Z,6.78
2022-10-03T13:26:18.450Z,10.43
2022-10-03T13:29:31.689Z,6.28
2022-10-03T13:32:26.232Z,7.90
2022-10-03T13:35:39.172Z,7.65
2022-10-03T13:38:28.114Z,9.98
2022-10-03T13:41:13.690Z,6.55
2022-10-03T13:43:56.041Z,6.03
2022-10-03T13:46:40.537Z,4.45
2022-10-03T13:49:27.122Z,10.32
2022-10-03T13:52:10.236Z,5.97
2022-10-03T13:55:10.106Z,5.32
2022-10-03T13:57:51.031Z,9.18
2022-10-03T14:00:32.283Z,6.57
2022-10-03T14:03:25.989Z,6.97
2022-10-03T14:06:25.687Z,4.70
2022-10-03T14:09:34.930Z,3.97
2022-10-03T14:12:38.070Z,4.43
2022-10-03T14:15:35.479Z,6.35
2022-10-03T14:18:27.019Z,7.10
2022-10-03T14:21:47.168Z,6.80
2022-10-03T14:24:41.262Z,6.82
2022-10-03T14:27:35.291Z,6.22
2022-10-03T14:30:15.911Z,5.10
2022-10-03T14:33:01.172Z,5.20
2022-10-03T14:35:57.620Z,6.47
2022-10-03T14:39:04.096Z,7.53
2022-10-03T14:41:52.343Z,4.22
2022-10-03T14:44:40.905Z,5.50
2022-10-03T14:47:17.729Z,4.22
2022-10-03T14:49:59.231Z,5.13
2022-10-03T14:52:42.600Z,6.10
2022-10-03T14:55:22.820Z,5.30
2022-10-03T14:58:11.638Z,7.50
2022-10-03T15:00:46.853Z,5.75
2022-10-03T15:03:30.595Z,5.32
2022-10-03T15:06:25.318Z,7.05
2022-10-03T15:09:04.858Z,5.93
2022-10-03T15:11:50.972Z,4.25
2022-10-03T15:14:29.759Z,6.95
2022-10-03T15:17:12.940Z,6.57
2022-10-03T15:19:58.533Z,5.35
2022-10-03T15:22:38.459Z,4.80
2022-10-03T15:25:19.128Z,4.05
2022-10-03T15:27:59.623Z,6.68
2022-10-03T15:30:41.573Z,5.30
2022-10-03T15:33:21.971Z,7.03
2022-10-03T15:36:03.173Z,5.75
2022-10-03T15:38:41.564Z,5.15
2022-10-03T15:41:21.551Z,5.50
2022-10-03T15:44:05.211Z,6.10
2022-10-03T15:46:49.021Z,7.10
2022-10-03T15:49:28.662Z,4.45
2022-10-03T15:52:11.778Z,6.10
2022-10-03T15:54:50.672Z,6.30
2022-10-03T15:57:29.806Z,4.88
2022-10-03T16:00:03.624Z,4.80
2022-10-03T16:02:43.360Z,6.20
2022-10-03T16:05:21.729Z,6.90
2022-10-03T16:07:59.399Z,4.38
2022-10-03T16:10:32.664Z,7.97
2022-10-03T16:13:08.101Z,5.13
2022-10-03T16:15:54.556Z,6.30
2022-10-03T16:18:52.051Z,6.43
2022-10-03T16:21:33.859Z,5.18
2022-10-03T16:24:05.772Z,6.63
2022-10-03T16:26:43.089Z,5.82
2022-10-03T16:29:17.537Z,5.43
2022-10-03T16:31:52.860Z,5.22
2022-10-03T16:34:26.773Z,4.85
2022-10-03T16:36:56.025Z,4.72
2022-10-03T16:39:27.128Z,5.20
2022-10-03T16:41:56.554Z,6.40
2022-10-03T16:44:28.424Z,5.97
2022-10-03T16:47:01.835Z,6.88
2022-10-03T16:49:56.565Z,8.20
2022-10-03T16:52:44.144Z,5.85
2022-10-03T16:55:18.607Z,6.15
2022-10-03T16:57:54.969Z,9.43
2022-10-03T17:01:22.152Z,5.60
2022-10-03T17:03:50.142Z,5.68
2022-10-03T17:06:23.115Z,5.47
2022-10-03T17:09:25.966Z,6.70
2022-10-03T17:12:18.271Z,5.80
2022-10-03T17:14:51.110Z,7.70
2022-10-03T17:17:36.892Z,4.93
2022-10-03T17:20:16.800Z,9.80
2022-10-03T17:22:58.469Z,5.10
2022-10-03T17:25:44.327Z,7.18
2022-10-03T17:28:21.233Z,6.25
2022-10-03T17:31:32.227Z,6.47
2022-10-03T17:34:16.235Z,7.90
2022-10-03T17:37:21.988Z,7.15
2022-10-03T17:39:59.824Z,7.18
2022-10-03T17:42:38.098Z,10.00
2022-10-03T17:45:28.106Z,6.70
2022-10-03T17:48:04.814Z,5.38
2022-10-03T17:50:48.532Z,5.20
2022-10-03T17:53:25.726Z,5.45
2022-10-03T17:56:05.298Z,7.40
2022-10-03T17:58:41.371Z,6.35
2022-10-03T18:01:21.832Z,8.50
2022-10-03T18:04:07.563Z,7.55
2022-10-03T18:06:58.617Z,7.57
2022-10-03T18:09:44.691Z,7.43
2022-10-03T18:12:29.951Z,13.90
2022-10-03T18:15:44.742Z,5.50
2022-10-03T18:18:52.765Z,8.45
2022-10-03T18:21:56.651Z,7.57
2022-10-03T18:25:04.479Z,8.20
2022-10-03T18:28:19.289Z,6.13
2022-10-03T18:31:04.501Z,6.85
2022-10-03T18:33:52.821Z,5.63
2022-10-03T18:36:31.293Z,5.18
2022-10-03T18:39:15.689Z,7.78
2022-10-03T18:41:58.257Z,4.88
2022-10-03T18:44:38.862Z,6.53
2022-10-03T18:47:27.543Z,9.93
2022-10-03T18:50:10.512Z,6.05
2022-10-03T18:52:55.114Z,5.68
2022-10-03T18:55:33.686Z,7.80
2022-10-03T18:58:23.249Z,7.75
2022-10-03T19:01:13.727Z,4.78
2022-10-03T19:03:59.921Z,5.15
2022-10-03T19:06:39.207Z,6.45
2022-10-03T19:09:24.734Z,6.47
2022-10-03T19:12:05.875Z,7.60
2022-10-03T19:14:47.353Z,7.13
2022-10-03T19:17:28.837Z,7.30
2022-10-03T19:20:23.190Z,11.38
2022-10-03T19:23:07.138Z,7.15
2022-10-03T19:25:44.693Z,7.45
2022-10-03T19:28:23.678Z,5.43
2022-10-03T19:31:07.107Z,8.23
2022-10-03T19:33:49.220Z,7.53
2022-10-03T19:36:26.338Z,8.15
2022-10-03T19:39:02.936Z,6.80
2022-10-03T19:41:43.778Z,8.65
2022-10-03T19:44:42.594Z,7.93
2022-10-03T19:47:23.823Z,8.43
2022-10-03T19:50:26.139Z,6.38
2022-10-03T19:53:01.818Z,5.55
2022-10-03T19:55:40.024Z,7.95
2022-10-03T19:58:24.346Z,7.80
2022-10-03T20:01:11.423Z,7.43
2022-10-03T20:04:01.867Z,5.68
2022-10-03T20:06:37.619Z,5.13
2022-10-03T20:11:57.062Z,5.30
2022-10-03T20:14:36.601Z,6.47
2022-10-03T20:17:17.453Z,5.82
2022-10-03T20:19:55.307Z,6.30
2022-10-03T20:22:30.140Z,7.90
2022-10-03T20:25:02.492Z,4.90
2022-10-03T20:27:39.127Z,8.10
2022-10-03T20:30:25.027Z,7.68
2022-10-03T20:32:56.491Z,5.38
2022-10-03T20:35:27.049Z,5.68
2022-10-03T20:38:00.552Z,7.15
2022-10-03T20:40:36.152Z,10.02
2022-10-03T20:43:20.860Z,9.32
2022-10-03T20:46:00.489Z,8.70
2022-10-03T20:48:34.745Z,8.63
2022-10-03T20:51:03.046Z,10.13
2022-10-03T20:53:32.992Z,14.38
2022-10-03T20:56:05.759Z,9.50
2022-10-03T20:58:40.013Z,9.18
2022-10-03T21:01:11.465Z,11.23
2022-10-03T21:03:44.443Z,12.43
2022-10-03T21:06:19.864Z,11.40
2022-10-03T21:08:48.774Z,9.57
2022-10-03T21:11:22.347Z,10.88
2022-10-03T21:13:56.185Z,12.13
2022-10-03T21:16:28.068Z,7.47
2022-10-03T21:19:01.235Z,8.80
2022-10-03T21:21:42.149Z,8.90
2022-10-03T21:24:16.751Z,7.43
2022-10-03T21:26:47.925Z,10.85
2022-10-03T21:29:26.523Z,8.07
2022-10-03T21:32:06.844Z,7.78
2022-10-03T21:34:44.475Z,8.63
2022-10-03T21:37:19.331Z,9.77
2022-10-03T21:40:00.710Z,8.35
2022-10-03T21:42:36.797Z,9.02
2022-10-03T21:45:22.680Z,8.73
2022-10-03T21:47:57.369Z,7.40
2022-10-03T21:50:30.805Z,8.48
2022-10-03T21:53:18.986Z,13.02
2022-10-03T21:56:16.939Z,7.93
2022-10-03T21:59:20.589Z,9.77
2022-10-03T22:01:58.266Z,13.07
2022-10-03T22:04:33.117Z,8.70
2022-10-03T22:07:06.899Z,8.43
2022-10-03T22:09:35.477Z,11.10
2022-10-03T22:12:08.108Z,8.48
2022-10-03T22:14:44.180Z,10.75
2022-10-03T22:17:22.786Z,8.73
2022-10-03T22:19:53.923Z,13.68
2022-10-03T22:22:36.696Z,8.00
2022-10-03T22:25:16.886Z,8.20
2022-10-03T22:27:54.776Z,8.00
2022-10-03T22:30:23.698Z,9.10
2022-10-03T22:33:08.190Z,10.77
2022-10-03T22:35:50.353Z,9.55
2022-10-03T22:38:23.534Z,11.98
2022-10-03T23:10:31.484Z,9.23
2022-10-03T23:13:04.456Z,9.35
2022-10-03T23:15:35.305Z,9.23
2022-10-03T23:18:27.505Z,9.50
2022-10-03T23:21:05.857Z,10.23
2022-10-03T23:23:57.185Z,11.68
2022-10-03T23:26:45.575Z,9.05
2022-10-03T23:29:18.539Z,10.88
2022-10-03T23:31:53.349Z,7.20
2022-10-03T23:35:10.473Z,12.73
2022-10-03T23:37:44.370Z,8.85
2022-10-03T23:40:31.381Z,7.57
2022-10-03T23:43:06.196Z,8.75
2022-10-03T23:45:36.370Z,8.82
2022-10-03T23:48:10.195Z,7.75
2022-10-03T23:50:44.971Z,8.07
2022-10-03T23:53:25.180Z,6.57
2022-10-03T23:55:53.395Z,11.02
2022-10-03T23:58:30.718Z,9.40
